sensor_id;sensor_type;location;lat;lon;timestamp;P1;durP1;ratioP1;P2;durP2;ratioP2
19482;SDS011;9882;51.166;6.992;2023-10-08T00:01:52;16.02;;;3.90;;
19482;SDS011;9882;51.166;6.992;2023-10-08T00:04:23;12.93;;;4.25;;
19482;SDS011;9882;51.166;6.992;2023-10-08T00:06:52;8.95;;;3.80;;
19482;SDS011;9882;51.166;6.992;2023-10-08T00:09:21;15.98;;;3.75;;
19482;SDS011;9882;51.166;6.992;2023-10-08T00:11:50;11.95;;;3.63;;
19482;SDS011;9882;51.166;6.992;2023-10-08T00:14:21;7.65;;;3.53;;
19482;SDS011;9882;51.166;6.992;2023-10-08T00:16:53;15.02;;;4.15;;
19482;SDS011;9882;51.166;6.992;2023-10-08T00:19:22;8.30;;;3.75;;
19482;SDS011;9882;51.166;6.992;2023-10-08T00:21:51;10.20;;;3.63;;
19482;SDS011;9882;51.166;6.992;2023-10-08T00:24:21;11.35;;;3.90;;
19482;SDS011;9882;51.166;6.992;2023-10-08T00:26:54;14.07;;;4.22;;
19482;SDS011;9882;51.166;6.992;2023-10-08T00:29:24;14.77;;;4.47;;
19482;SDS011;9882;51.166;6.992;2023-10-08T00:31:54;11.63;;;3.78;;
19482;SDS011;9882;51.166;6.992;2023-10-08T00:34:24;10.88;;;4.00;;
19482;SDS011;9882;51.166;6.992;2023-10-08T00:36:54;12.40;;;4.00;;
19482;SDS011;9882;51.166;6.992;2023-10-08T00:39:25;10.90;;;4.30;;
19482;SDS011;9882;51.166;6.992;2023-10-08T00:42:01;10.88;;;4.03;;
19482;SDS011;9882;51.166;6.992;2023-10-08T00:44:32;8.23;;;3.60;;
19482;SDS011;9882;51.166;6.992;2023-10-08T00:47:06;7.63;;;3.40;;
19482;SDS011;9882;51.166;6.992;2023-10-08T00:49:39;13.88;;;3.08;;
19482;SDS011;9882;51.166;6.992;2023-10-08T00:52:21;12.48;;;4.18;;
19482;SDS011;9882;51.166;6.992;2023-10-08T00:54:56;6.88;;;3.38;;
19482;SDS011;9882;51.166;6.992;2023-10-08T00:57:49;9.50;;;3.58;;
19482;SDS011;9882;51.166;6.992;2023-10-08T01:00:24;10.57;;;4.18;;
19482;SDS011;9882;51.166;6.992;2023-10-08T01:03:02;12.02;;;4.40;;
19482;SDS011;9882;51.166;6.992;2023-10-08T01:05:42;11.75;;;3.80;;
19482;SDS011;9882;51.166;6.992;2023-10-08T01:08:14;10.55;;;4.20;;
19482;SDS011;9882;51.166;6.992;2023-10-08T01:10:49;10.23;;;3.33;;
19482;SDS011;9882;51.166;6.992;2023-10-08T01:13:29;10.63;;;3.67;;
19482;SDS011;9882;51.166;6.992;2023-10-08T01:16:03;8.20;;;3.65;;
19482;SDS011;9882;51.166;6.992;2023-10-08T01:18:37;18.17;;;3.92;;
19482;SDS011;9882;51.166;6.992;2023-10-08T01:21:10;17.60;;;3.85;;
19482;SDS011;9882;51.166;6.992;2023-10-08T01:23:46;12.50;;;3.75;;
19482;SDS011;9882;51.166;6.992;2023-10-08T01:26:19;8.77;;;3.95;;
19482;SDS011;9882;51.166;6.992;2023-10-08T01:28:49;7.95;;;3.63;;
19482;SDS011;9882;51.166;6.992;2023-10-08T01:31:22;15.00;;;4.22;;
19482;SDS011;9882;51.166;6.992;2023-10-08T01:33:52;13.40;;;4.20;;
19482;SDS011;9882;51.166;6.992;2023-10-08T01:36:24;13.23;;;4.13;;
19482;SDS011;9882;51.166;6.992;2023-10-08T01:38:55;13.25;;;4.10;;
19482;SDS011;9882;51.166;6.992;2023-10-08T01:41:24;13.55;;;4.75;;
19482;SDS011;9882;51.166;6.992;2023-10-08T01:43:57;10.27;;;4.00;;
19482;SDS011;9882;51.166;6.992;2023-10-08T01:46:26;14.38;;;4.20;;
19482;SDS011;9882;51.166;6.992;2023-10-08T01:48:55;11.00;;;4.22;;
19482;SDS011;9882;51.166;6.992;2023-10-08T01:51:30;16.60;;;4.15;;
19482;SDS011;9882;51.166;6.992;2023-10-08T01:54:08;15.50;;;4.60;;
19482;SDS011;9882;51.166;6.992;2023-10-08T01:56:38;10.43;;;3.58;;
19482;SDS011;9882;51.166;6.992;2023-10-08T01:59:10;16.10;;;4.38;;
19482;SDS011;9882;51.166;6.992;2023-10-08T02:01:41;14.10;;;4.68;;
19482;SDS011;9882;51.166;6.992;2023-10-08T02:04:12;13.65;;;4.32;;
19482;SDS011;9882;51.166;6.992;2023-10-08T02:06:44;9.50;;;4.18;;
19482;SDS011;9882;51.166;6.992;2023-10-08T02:09:15;7.35;;;3.72;;
19482;SDS011;9882;51.166;6.992;2023-10-08T02:11:44;16.50;;;4.38;;
19482;SDS011;9882;51.166;6.992;2023-10-08T02:14:17;11.43;;;4.32;;
19482;SDS011;9882;51.166;6.992;2023-10-08T02:16:48;10.48;;;3.80;;
19482;SDS011;9882;51.166;6.992;2023-10-08T02:19:19;10.90;;;3.83;;
19482;SDS011;9882;51.166;6.992;2023-10-08T02:21:54;10.57;;;4.00;;
19482;SDS011;9882;51.166;6.992;2023-10-08T02:24:26;8.57;;;3.53;;
19482;SDS011;9882;51.166;6.992;2023-10-08T02:26:57;13.43;;;4.43;;
19482;SDS011;9882;51.166;6.992;2023-10-08T02:29:28;11.23;;;4.43;;
19482;SDS011;9882;51.166;6.992;2023-10-08T02:31:58;14.25;;;4.32;;
19482;SDS011;9882;51.166;6.992;2023-10-08T02:34:28;13.73;;;4.00;;
19482;SDS011;9882;51.166;6.992;2023-10-08T02:36:57;10.63;;;4.53;;
19482;SDS011;9882;51.166;6.992;2023-10-08T02:39:28;13.50;;;4.22;;
19482;SDS011;9882;51.166;6.992;2023-10-08T02:41:59;16.83;;;4.55;;
19482;SDS011;9882;51.166;6.992;2023-10-08T02:44:28;11.88;;;4.35;;
19482;SDS011;9882;51.166;6.992;2023-10-08T02:46:58;10.82;;;3.90;;
19482;SDS011;9882;51.166;6.992;2023-10-08T02:49:28;13.48;;;3.88;;
19482;SDS011;9882;51.166;6.992;2023-10-08T02:51:58;10.50;;;3.78;;
19482;SDS011;9882;51.166;6.992;2023-10-08T02:54:32;16.20;;;4.25;;
19482;SDS011;9882;51.166;6.992;2023-10-08T02:57:03;10.57;;;4.05;;
19482;SDS011;9882;51.166;6.992;2023-10-08T02:59:37;11.00;;;4.10;;
19482;SDS011;9882;51.166;6.992;2023-10-08T03:02:12;8.77;;;3.47;;
19482;SDS011;9882;51.166;6.992;2023-10-08T03:04:46;17.73;;;4.47;;
19482;SDS011;9882;51.166;6.992;2023-10-08T03:07:18;13.27;;;4.53;;
19482;SDS011;9882;51.166;6.992;2023-10-08T03:10:05;13.38;;;3.83;;
19482;SDS011;9882;51.166;6.992;2023-10-08T03:13:03;24.70;;;4.18;;
19482;SDS011;9882;51.166;6.992;2023-10-08T03:15:49;8.98;;;3.53;;
19482;SDS011;9882;51.166;6.992;2023-10-08T03:18:37;11.20;;;4.57;;
19482;SDS011;9882;51.166;6.992;2023-10-08T03:21:31;10.82;;;3.90;;
19482;SDS011;9882;51.166;6.992;2023-10-08T03:24:30;9.88;;;3.75;;
19482;SDS011;9882;51.166;6.992;2023-10-08T03:27:29;6.97;;;3.47;;
19482;SDS011;9882;51.166;6.992;2023-10-08T03:30:05;9.82;;;3.47;;
19482;SDS011;9882;51.166;6.992;2023-10-08T03:32:48;13.50;;;4.38;;
19482;SDS011;9882;51.166;6.992;2023-10-08T03:35:27;12.98;;;4.32;;
19482;SDS011;9882;51.166;6.992;2023-10-08T03:38:03;10.88;;;3.78;;
19482;SDS011;9882;51.166;6.992;2023-10-08T03:40:48;11.95;;;3.92;;
19482;SDS011;9882;51.166;6.992;2023-10-08T03:43:25;7.82;;;3.67;;
19482;SDS011;9882;51.166;6.992;2023-10-08T03:46:01;14.00;;;4.43;;
19482;SDS011;9882;51.166;6.992;2023-10-08T03:48:32;16.45;;;4.38;;
19482;SDS011;9882;51.166;6.992;2023-10-08T03:51:04;10.93;;;3.70;;
19482;SDS011;9882;51.166;6.992;2023-10-08T03:53:39;8.93;;;3.40;;
19482;SDS011;9882;51.166;6.992;2023-10-08T03:56:25;16.05;;;4.35;;
19482;SDS011;9882;51.166;6.992;2023-10-08T03:58:58;13.88;;;4.20;;
19482;SDS011;9882;51.166;6.992;2023-10-08T04:01:30;9.23;;;4.00;;
19482;SDS011;9882;51.166;6.992;2023-10-08T04:04:00;7.43;;;3.45;;
19482;SDS011;9882;51.166;6.992;2023-10-08T04:06:29;7.47;;;3.67;;
19482;SDS011;9882;51.166;6.992;2023-10-08T04:09:05;8.77;;;4.25;;
19482;SDS011;9882;51.166;6.992;2023-10-08T04:11:43;6.55;;;3.50;;
19482;SDS011;9882;51.166;6.992;2023-10-08T04:14:26;7.75;;;3.80;;
19482;SDS011;9882;51.166;6.992;2023-10-08T04:16:57;17.15;;;4.35;;
19482;SDS011;9882;51.166;6.992;2023-10-08T04:19:26;10.30;;;3.97;;
19482;SDS011;9882;51.166;6.992;2023-10-08T04:21:55;14.65;;;4.00;;
19482;SDS011;9882;51.166;6.992;2023-10-08T04:24:24;16.88;;;3.90;;
19482;SDS011;9882;51.166;6.992;2023-10-08T04:27:02;16.23;;;4.55;;
19482;SDS011;9882;51.166;6.992;2023-10-08T04:29:34;11.45;;;3.92;;
19482;SDS011;9882;51.166;6.992;2023-10-08T04:32:05;11.75;;;3.88;;
19482;SDS011;9882;51.166;6.992;2023-10-08T04:34:39;13.55;;;4.18;;
19482;SDS011;9882;51.166;6.992;2023-10-08T04:37:14;16.30;;;4.13;;
19482;SDS011;9882;51.166;6.992;2023-10-08T04:39:47;7.70;;;3.83;;
19482;SDS011;9882;51.166;6.992;2023-10-08T04:42:25;14.70;;;3.97;;
19482;SDS011;9882;51.166;6.992;2023-10-08T04:44:56;12.43;;;4.55;;
19482;SDS011;9882;51.166;6.992;2023-10-08T04:47:25;11.98;;;4.22;;
19482;SDS011;9882;51.166;6.992;2023-10-08T04:50:03;13.27;;;4.55;;
19482;SDS011;9882;51.166;6.992;2023-10-08T04:52:33;16.77;;;4.57;;
19482;SDS011;9882;51.166;6.992;2023-10-08T04:55:12;12.27;;;4.47;;
19482;SDS011;9882;51.166;6.992;2023-10-08T04:57:47;7.63;;;3.65;;
19482;SDS011;9882;51.166;6.992;2023-10-08T05:00:20;10.05;;;3.63;;
19482;SDS011;9882;51.166;6.992;2023-10-08T05:03:08;12.65;;;3.80;;
19482;SDS011;9882;51.166;6.992;2023-10-08T05:05:42;11.07;;;3.70;;
19482;SDS011;9882;51.166;6.992;2023-10-08T05:08:25;8.52;;;3.55;;
19482;SDS011;9882;51.166;6.992;2023-10-08T05:11:00;10.13;;;3.47;;
19482;SDS011;9882;51.166;6.992;2023-10-08T05:13:41;9.75;;;4.28;;
19482;SDS011;9882;51.166;6.992;2023-10-08T05:16:24;7.35;;;3.33;;
19482;SDS011;9882;51.166;6.992;2023-10-08T05:19:04;8.40;;;3.67;;
19482;SDS011;9882;51.166;6.992;2023-10-08T05:21:41;12.45;;;3.88;;
19482;SDS011;9882;51.166;6.992;2023-10-08T05:24:19;10.07;;;3.30;;
19482;SDS011;9882;51.166;6.992;2023-10-08T05:26:54;7.35;;;3.35;;
19482;SDS011;9882;51.166;6.992;2023-10-08T05:29:46;9.32;;;3.95;;
19482;SDS011;9882;51.166;6.992;2023-10-08T05:32:31;12.65;;;3.80;;
19482;SDS011;9882;51.166;6.992;2023-10-08T05:35:13;15.30;;;4.00;;
19482;SDS011;9882;51.166;6.992;2023-10-08T05:38:00;10.02;;;3.90;;
19482;SDS011;9882;51.166;6.992;2023-10-08T05:40:42;12.13;;;3.85;;
19482;SDS011;9882;51.166;6.992;2023-10-08T05:43:29;12.57;;;4.38;;
19482;SDS011;9882;51.166;6.992;2023-10-08T05:46:22;10.50;;;4.28;;
19482;SDS011;9882;51.166;6.992;2023-10-08T05:49:15;13.90;;;3.90;;
19482;SDS011;9882;51.166;6.992;2023-10-08T05:52:05;10.38;;;4.50;;
19482;SDS011;9882;51.166;6.992;2023-10-08T05:54:52;14.65;;;4.18;;
19482;SDS011;9882;51.166;6.992;2023-10-08T05:57:39;8.15;;;3.45;;
19482;SDS011;9882;51.166;6.992;2023-10-08T06:00:13;13.85;;;5.28;;
19482;SDS011;9882;51.166;6.992;2023-10-08T06:03:08;12.43;;;4.43;;
19482;SDS011;9882;51.166;6.992;2023-10-08T06:06:01;10.18;;;3.60;;
19482;SDS011;9882;51.166;6.992;2023-10-08T06:08:49;15.13;;;4.40;;
19482;SDS011;9882;51.166;6.992;2023-10-08T06:11:33;11.60;;;4.25;;
19482;SDS011;9882;51.166;6.992;2023-10-08T06:14:12;11.85;;;4.00;;
19482;SDS011;9882;51.166;6.992;2023-10-08T06:16:55;10.50;;;4.20;;
19482;SDS011;9882;51.166;6.992;2023-10-08T06:19:40;8.60;;;3.85;;
19482;SDS011;9882;51.166;6.992;2023-10-08T06:22:11;6.55;;;3.45;;
19482;SDS011;9882;51.166;6.992;2023-10-08T06:24:40;12.35;;;4.18;;
19482;SDS011;9882;51.166;6.992;2023-10-08T06:27:10;12.05;;;4.03;;
19482;SDS011;9882;51.166;6.992;2023-10-08T06:29:44;17.58;;;4.43;;
19482;SDS011;9882;51.166;6.992;2023-10-08T06:32:12;11.77;;;3.92;;
19482;SDS011;9882;51.166;6.992;2023-10-08T06:34:41;15.18;;;4.38;;
19482;SDS011;9882;51.166;6.992;2023-10-08T06:37:12;14.07;;;4.45;;
19482;SDS011;9882;51.166;6.992;2023-10-08T06:39:43;10.95;;;4.68;;
19482;SDS011;9882;51.166;6.992;2023-10-08T06:42:15;16.08;;;5.05;;
19482;SDS011;9882;51.166;6.992;2023-10-08T06:44:44;11.90;;;4.53;;
19482;SDS011;9882;51.166;6.992;2023-10-08T06:47:15;11.65;;;4.13;;
19482;SDS011;9882;51.166;6.992;2023-10-08T06:49:46;12.25;;;4.50;;
19482;SDS011;9882;51.166;6.992;2023-10-08T06:52:17;9.85;;;3.90;;
19482;SDS011;9882;51.166;6.992;2023-10-08T06:54:47;10.98;;;4.32;;
19482;SDS011;9882;51.166;6.992;2023-10-08T06:57:15;13.05;;;4.10;;
19482;SDS011;9882;51.166;6.992;2023-10-08T06:59:47;15.43;;;4.53;;
19482;SDS011;9882;51.166;6.992;2023-10-08T07:02:17;11.38;;;4.22;;
19482;SDS011;9882;51.166;6.992;2023-10-08T07:04:47;10.88;;;3.97;;
19482;SDS011;9882;51.166;6.992;2023-10-08T07:07:19;8.35;;;3.63;;
19482;SDS011;9882;51.166;6.992;2023-10-08T07:09:48;14.18;;;4.28;;
19482;SDS011;9882;51.166;6.992;2023-10-08T07:12:18;16.08;;;4.95;;
19482;SDS011;9882;51.166;6.992;2023-10-08T07:14:51;8.55;;;3.58;;
19482;SDS011;9882;51.166;6.992;2023-10-08T07:17:21;10.30;;;4.00;;
19482;SDS011;9882;51.166;6.992;2023-10-08T07:19:54;14.43;;;4.18;;
19482;SDS011;9882;51.166;6.992;2023-10-08T07:22:26;19.35;;;5.50;;
19482;SDS011;9882;51.166;6.992;2023-10-08T07:24:56;16.15;;;4.60;;
19482;SDS011;9882;51.166;6.992;2023-10-08T07:27:25;14.75;;;4.70;;
19482;SDS011;9882;51.166;6.992;2023-10-08T07:29:59;12.43;;;4.28;;
19482;SDS011;9882;51.166;6.992;2023-10-08T07:32:37;7.30;;;3.75;;
19482;SDS011;9882;51.166;6.992;2023-10-08T07:35:08;13.75;;;4.35;;
19482;SDS011;9882;51.166;6.992;2023-10-08T07:37:53;16.73;;;3.97;;
19482;SDS011;9882;51.166;6.992;2023-10-08T07:40:22;15.48;;;5.07;;
19482;SDS011;9882;51.166;6.992;2023-10-08T07:42:56;11.68;;;3.72;;
19482;SDS011;9882;51.166;6.992;2023-10-08T07:45:35;16.35;;;4.63;;
19482;SDS011;9882;51.166;6.992;2023-10-08T07:48:04;15.18;;;4.97;;
19482;SDS011;9882;51.166;6.992;2023-10-08T07:50:40;14.75;;;5.03;;
19482;SDS011;9882;51.166;6.992;2023-10-08T07:53:13;10.45;;;4.32;;
19482;SDS011;9882;51.166;6.992;2023-10-08T07:55:46;15.30;;;4.43;;
19482;SDS011;9882;51.166;6.992;2023-10-08T07:58:18;12.10;;;4.43;;
19482;SDS011;9882;51.166;6.992;2023-10-08T08:00:47;11.82;;;4.63;;
19482;SDS011;9882;51.166;6.992;2023-10-08T08:03:22;10.60;;;4.30;;
19482;SDS011;9882;51.166;6.992;2023-10-08T08:05:52;12.75;;;4.55;;
19482;SDS011;9882;51.166;6.992;2023-10-08T08:08:22;15.15;;;4.57;;
19482;SDS011;9882;51.166;6.992;2023-10-08T08:10:54;11.40;;;4.32;;
19482;SDS011;9882;51.166;6.992;2023-10-08T08:13:24;13.40;;;3.97;;
19482;SDS011;9882;51.166;6.992;2023-10-08T08:15:55;14.15;;;4.75;;
19482;SDS011;9882;51.166;6.992;2023-10-08T08:18:25;19.27;;;4.38;;
19482;SDS011;9882;51.166;6.992;2023-10-08T08:21:00;14.25;;;4.53;;
19482;SDS011;9882;51.166;6.992;2023-10-08T08:23:31;17.15;;;4.53;;
19482;SDS011;9882;51.166;6.992;2023-10-08T08:26:00;9.15;;;4.10;;
19482;SDS011;9882;51.166;6.992;2023-10-08T08:28:40;13.13;;;4.40;;
19482;SDS011;9882;51.166;6.992;2023-10-08T08:31:13;13.85;;;4.82;;
19482;SDS011;9882;51.166;6.992;2023-10-08T08:33:42;15.95;;;5.32;;
19482;SDS011;9882;51.166;6.992;2023-10-08T08:36:27;8.95;;;3.88;;
19482;SDS011;9882;51.166;6.992;2023-10-08T08:38:58;11.45;;;4.63;;
19482;SDS011;9882;51.166;6.992;2023-10-08T08:41:27;16.30;;;5.85;;
19482;SDS011;9882;51.166;6.992;2023-10-08T08:43:56;13.82;;;4.78;;
19482;SDS011;9882;51.166;6.992;2023-10-08T08:46:27;14.10;;;5.25;;
19482;SDS011;9882;51.166;6.992;2023-10-08T08:49:00;9.95;;;4.65;;
19482;SDS011;9882;51.166;6.992;2023-10-08T08:51:32;13.05;;;4.60;;
19482;SDS011;9882;51.166;6.992;2023-10-08T08:54:03;15.05;;;5.25;;
19482;SDS011;9882;51.166;6.992;2023-10-08T08:56:34;24.30;;;6.18;;
19482;SDS011;9882;51.166;6.992;2023-10-08T08:59:06;13.90;;;4.28;;
19482;SDS011;9882;51.166;6.992;2023-10-08T09:01:38;11.20;;;4.43;;
19482;SDS011;9882;51.166;6.992;2023-10-08T09:04:08;11.30;;;4.07;;
19482;SDS011;9882;51.166;6.992;2023-10-08T09:06:38;17.30;;;4.65;;
19482;SDS011;9882;51.166;6.992;2023-10-08T09:09:09;15.88;;;5.65;;
19482;SDS011;9882;51.166;6.992;2023-10-08T09:11:49;28.23;;;7.10;;
19482;SDS011;9882;51.166;6.992;2023-10-08T09:14:19;22.73;;;5.28;;
19482;SDS011;9882;51.166;6.992;2023-10-08T09:16:50;23.67;;;7.13;;
19482;SDS011;9882;51.166;6.992;2023-10-08T09:19:21;22.75;;;6.63;;
19482;SDS011;9882;51.166;6.992;2023-10-08T09:22:02;23.27;;;7.38;;
19482;SDS011;9882;51.166;6.992;2023-10-08T09:24:34;18.63;;;5.35;;
19482;SDS011;9882;51.166;6.992;2023-10-08T09:27:05;27.92;;;6.00;;
19482;SDS011;9882;51.166;6.992;2023-10-08T09:29:35;24.88;;;5.65;;
19482;SDS011;9882;51.166;6.992;2023-10-08T09:32:08;19.27;;;6.15;;
19482;SDS011;9882;51.166;6.992;2023-10-08T09:34:38;18.33;;;6.30;;
19482;SDS011;9882;51.166;6.992;2023-10-08T09:37:07;15.35;;;5.00;;
19482;SDS011;9882;51.166;6.992;2023-10-08T09:39:38;20.70;;;6.63;;
19482;SDS011;9882;51.166;6.992;2023-10-08T09:42:09;19.58;;;6.70;;
19482;SDS011;9882;51.166;6.992;2023-10-08T09:44:41;26.55;;;6.50;;
19482;SDS011;9882;51.166;6.992;2023-10-08T09:47:11;21.83;;;5.95;;
19482;SDS011;9882;51.166;6.992;2023-10-08T09:49:46;27.92;;;8.45;;
19482;SDS011;9882;51.166;6.992;2023-10-08T09:52:36;23.55;;;6.53;;
19482;SDS011;9882;51.166;6.992;2023-10-08T09:55:13;21.10;;;5.93;;
19482;SDS011;9882;51.166;6.992;2023-10-08T09:57:45;17.27;;;6.47;;
19482;SDS011;9882;51.166;6.992;2023-10-08T10:00:14;28.50;;;8.15;;
19482;SDS011;9882;51.166;6.992;2023-10-08T10:02:56;26.95;;;8.18;;
19482;SDS011;9882;51.166;6.992;2023-10-08T10:05:29;21.55;;;5.78;;
19482;SDS011;9882;51.166;6.992;2023-10-08T10:07:58;24.50;;;6.38;;
19482;SDS011;9882;51.166;6.992;2023-10-08T10:10:34;32.05;;;8.80;;
19482;SDS011;9882;51.166;6.992;2023-10-08T10:13:05;21.83;;;6.25;;
19482;SDS011;9882;51.166;6.992;2023-10-08T10:15:38;33.72;;;10.25;;
19482;SDS011;9882;51.166;6.992;2023-10-08T10:18:08;34.35;;;10.15;;
19482;SDS011;9882;51.166;6.992;2023-10-08T10:20:44;56.55;;;10.63;;
19482;SDS011;9882;51.166;6.992;2023-10-08T10:31:46;37.80;;;9.10;;
19482;SDS011;9882;51.166;6.992;2023-10-08T10:34:20;32.70;;;10.60;;
19482;SDS011;9882;51.166;6.992;2023-10-08T10:36:51;27.02;;;8.60;;
19482;SDS011;9882;51.166;6.992;2023-10-08T10:39:29;25.45;;;7.68;;
19482;SDS011;9882;51.166;6.992;2023-10-08T10:42:08;21.58;;;6.60;;
19482;SDS011;9882;51.166;6.992;2023-10-08T10:44:47;31.25;;;9.27;;
19482;SDS011;9882;51.166;6.992;2023-10-08T10:47:20;29.25;;;9.18;;
19482;SDS011;9882;51.166;6.992;2023-10-08T10:50:09;36.40;;;10.95;;
19482;SDS011;9882;51.166;6.992;2023-10-08T10:52:58;37.85;;;10.82;;
19482;SDS011;9882;51.166;6.992;2023-10-08T10:55:36;32.25;;;10.73;;
19482;SDS011;9882;51.166;6.992;2023-10-08T10:58:08;52.33;;;10.70;;
19482;SDS011;9882;51.166;6.992;2023-10-08T11:00:41;36.03;;;9.88;;
19482;SDS011;9882;51.166;6.992;2023-10-08T11:03:24;39.67;;;10.05;;
19482;SDS011;9882;51.166;6.992;2023-10-08T11:05:53;28.05;;;7.68;;
19482;SDS011;9882;51.166;6.992;2023-10-08T11:08:27;21.98;;;7.18;;
19482;SDS011;9882;51.166;6.992;2023-10-08T11:11:02;40.15;;;9.82;;
19482;SDS011;9882;51.166;6.992;2023-10-08T11:13:41;37.70;;;10.63;;
19482;SDS011;9882;51.166;6.992;2023-10-08T11:16:16;41.42;;;11.40;;
19482;SDS011;9882;51.166;6.992;2023-10-08T11:18:49;35.40;;;9.95;;
19482;SDS011;9882;51.166;6.992;2023-10-08T11:21:24;35.13;;;9.98;;
19482;SDS011;9882;51.166;6.992;2023-10-08T11:23:58;33.60;;;9.80;;
19482;SDS011;9882;51.166;6.992;2023-10-08T11:26:36;30.25;;;8.65;;
19482;SDS011;9882;51.166;6.992;2023-10-08T11:29:08;29.80;;;9.60;;
19482;SDS011;9882;51.166;6.992;2023-10-08T11:31:42;26.13;;;9.40;;
19482;SDS011;9882;51.166;6.992;2023-10-08T11:34:11;40.25;;;10.80;;
19482;SDS011;9882;51.166;6.992;2023-10-08T11:36:41;20.35;;;7.70;;
19482;SDS011;9882;51.166;6.992;2023-10-08T11:39:26;25.58;;;8.75;;
19482;SDS011;9882;51.166;6.992;2023-10-08T11:41:58;40.25;;;10.43;;
19482;SDS011;9882;51.166;6.992;2023-10-08T11:44:32;29.33;;;9.80;;
19482;SDS011;9882;51.166;6.992;2023-10-08T11:47:03;34.05;;;10.13;;
19482;SDS011;9882;51.166;6.992;2023-10-08T11:49:39;29.50;;;9.65;;
19482;SDS011;9882;51.166;6.992;2023-10-08T11:52:14;29.50;;;9.98;;
19482;SDS011;9882;51.166;6.992;2023-10-08T11:54:44;31.15;;;9.73;;
19482;SDS011;9882;51.166;6.992;2023-10-08T11:57:15;44.65;;;10.90;;
19482;SDS011;9882;51.166;6.992;2023-10-08T11:59:50;23.02;;;7.78;;
19482;SDS011;9882;51.166;6.992;2023-10-08T12:02:22;42.78;;;11.85;;
19482;SDS011;9882;51.166;6.992;2023-10-08T12:04:52;35.13;;;10.65;;
19482;SDS011;9882;51.166;6.992;2023-10-08T12:07:25;29.30;;;9.05;;
19482;SDS011;9882;51.166;6.992;2023-10-08T12:09:55;31.27;;;8.98;;
19482;SDS011;9882;51.166;6.992;2023-10-08T12:12:24;25.55;;;8.10;;
19482;SDS011;9882;51.166;6.992;2023-10-08T12:14:56;39.35;;;11.18;;
19482;SDS011;9882;51.166;6.992;2023-10-08T12:17:26;31.73;;;9.77;;
19482;SDS011;9882;51.166;6.992;2023-10-08T12:20:05;32.65;;;8.82;;
19482;SDS011;9882;51.166;6.992;2023-10-08T12:22:50;36.33;;;10.55;;
19482;SDS011;9882;51.166;6.992;2023-10-08T12:25:20;26.90;;;8.32;;
19482;SDS011;9882;51.166;6.992;2023-10-08T12:27:49;32.85;;;9.77;;
19482;SDS011;9882;51.166;6.992;2023-10-08T12:30:20;27.85;;;9.63;;
19482;SDS011;9882;51.166;6.992;2023-10-08T12:32:58;30.77;;;8.75;;
19482;SDS011;9882;51.166;6.992;2023-10-08T12:35:28;24.85;;;9.63;;
19482;SDS011;9882;51.166;6.992;2023-10-08T12:37:57;33.65;;;10.32;;
19482;SDS011;9882;51.166;6.992;2023-10-08T12:40:26;28.45;;;8.40;;
19482;SDS011;9882;51.166;6.992;2023-10-08T12:43:09;27.55;;;9.57;;
19482;SDS011;9882;51.166;6.992;2023-10-08T12:45:40;27.88;;;9.90;;
19482;SDS011;9882;51.166;6.992;2023-10-08T12:48:15;26.20;;;8.93;;
19482;SDS011;9882;51.166;6.992;2023-10-08T12:50:44;29.90;;;8.93;;
19482;SDS011;9882;51.166;6.992;2023-10-08T12:53:20;30.65;;;8.75;;
19482;SDS011;9882;51.166;6.992;2023-10-08T12:55:54;24.98;;;9.18;;
19482;SDS011;9882;51.166;6.992;2023-10-08T12:58:25;28.95;;;9.75;;
19482;SDS011;9882;51.166;6.992;2023-10-08T13:00:58;26.63;;;8.32;;
19482;SDS011;9882;51.166;6.992;2023-10-08T13:03:31;17.80;;;7.22;;
19482;SDS011;9882;51.166;6.992;2023-10-08T13:06:00;26.10;;;8.70;;
19482;SDS011;9882;51.166;6.992;2023-10-08T13:08:32;26.75;;;9.15;;
19482;SDS011;9882;51.166;6.992;2023-10-08T13:11:02;27.73;;;9.02;;
19482;SDS011;9882;51.166;6.992;2023-10-08T13:13:32;28.48;;;8.95;;
19482;SDS011;9882;51.166;6.992;2023-10-08T13:16:05;22.27;;;8.35;;
19482;SDS011;9882;51.166;6.992;2023-10-08T13:18:38;30.85;;;8.40;;
19482;SDS011;9882;51.166;6.992;2023-10-08T13:21:10;26.58;;;8.70;;
19482;SDS011;9882;51.166;6.992;2023-10-08T13:23:43;29.33;;;9.85;;
19482;SDS011;9882;51.166;6.992;2023-10-08T13:26:13;27.90;;;9.93;;
19482;SDS011;9882;51.166;6.992;2023-10-08T13:28:44;32.72;;;9.55;;
19482;SDS011;9882;51.166;6.992;2023-10-08T13:31:17;22.70;;;8.07;;
19482;SDS011;9882;51.166;6.992;2023-10-08T13:33:47;33.60;;;9.13;;
19482;SDS011;9882;51.166;6.992;2023-10-08T13:36:19;23.55;;;7.78;;
19482;SDS011;9882;51.166;6.992;2023-10-08T13:38:48;25.00;;;9.07;;
19482;SDS011;9882;51.166;6.992;2023-10-08T13:41:19;24.50;;;8.43;;
19482;SDS011;9882;51.166;6.992;2023-10-08T13:43:48;20.88;;;6.55;;
19482;SDS011;9882;51.166;6.992;2023-10-08T13:46:21;19.50;;;7.32;;
19482;SDS011;9882;51.166;6.992;2023-10-08T13:48:51;40.17;;;8.55;;
19482;SDS011;9882;51.166;6.992;2023-10-08T13:51:21;38.67;;;10.48;;
19482;SDS011;9882;51.166;6.992;2023-10-08T13:53:53;26.00;;;8.25;;
19482;SDS011;9882;51.166;6.992;2023-10-08T13:56:26;29.50;;;8.93;;
19482;SDS011;9882;51.166;6.992;2023-10-08T13:58:58;24.88;;;8.25;;
19482;SDS011;9882;51.166;6.992;2023-10-08T14:01:41;28.05;;;8.82;;
19482;SDS011;9882;51.166;6.992;2023-10-08T14:04:13;21.65;;;7.25;;
19482;SDS011;9882;51.166;6.992;2023-10-08T14:06:45;24.77;;;8.48;;
19482;SDS011;9882;51.166;6.992;2023-10-08T14:09:19;29.52;;;8.50;;
19482;SDS011;9882;51.166;6.992;2023-10-08T14:11:49;24.95;;;8.13;;
19482;SDS011;9882;51.166;6.992;2023-10-08T14:14:19;19.85;;;7.07;;
19482;SDS011;9882;51.166;6.992;2023-10-08T14:16:53;22.55;;;7.57;;
19482;SDS011;9882;51.166;6.992;2023-10-08T14:19:27;28.27;;;7.43;;
19482;SDS011;9882;51.166;6.992;2023-10-08T14:22:03;23.20;;;8.35;;
19482;SDS011;9882;51.166;6.992;2023-10-08T14:24:35;20.00;;;7.00;;
19482;SDS011;9882;51.166;6.992;2023-10-08T14:27:06;21.73;;;7.70;;
19482;SDS011;9882;51.166;6.992;2023-10-08T14:29:38;25.23;;;7.93;;
19482;SDS011;9882;51.166;6.992;2023-10-08T14:32:12;21.38;;;7.32;;
19482;SDS011;9882;51.166;6.992;2023-10-08T14:34:42;21.67;;;6.05;;
19482;SDS011;9882;51.166;6.992;2023-10-08T14:37:29;18.13;;;7.00;;
19482;SDS011;9882;51.166;6.992;2023-10-08T14:40:23;22.33;;;7.43;;
19482;SDS011;9882;51.166;6.992;2023-10-08T14:43:10;26.80;;;8.10;;
19482;SDS011;9882;51.166;6.992;2023-10-08T14:45:39;30.13;;;7.70;;
19482;SDS011;9882;51.166;6.992;2023-10-08T14:48:10;19.20;;;6.68;;
19482;SDS011;9882;51.166;6.992;2023-10-08T14:50:41;24.38;;;7.90;;
19482;SDS011;9882;51.166;6.992;2023-10-08T14:53:10;21.42;;;7.03;;
19482;SDS011;9882;51.166;6.992;2023-10-08T14:55:39;26.60;;;6.93;;
19482;SDS011;9882;51.166;6.992;2023-10-08T14:58:08;24.85;;;7.15;;
19482;SDS011;9882;51.166;6.992;2023-10-08T15:00:38;22.02;;;7.20;;
19482;SDS011;9882;51.166;6.992;2023-10-08T15:03:11;22.23;;;6.63;;
19482;SDS011;9882;51.166;6.992;2023-10-08T15:05:40;25.92;;;7.20;;
19482;SDS011;9882;51.166;6.992;2023-10-08T15:08:09;26.52;;;8.10;;
19482;SDS011;9882;51.166;6.992;2023-10-08T15:10:41;19.10;;;6.93;;
19482;SDS011;9882;51.166;6.992;2023-10-08T15:13:10;25.20;;;7.75;;
19482;SDS011;9882;51.166;6.992;2023-10-08T15:15:40;19.05;;;6.07;;
19482;SDS011;9882;51.166;6.992;2023-10-08T15:18:11;21.52;;;6.43;;
19482;SDS011;9882;51.166;6.992;2023-10-08T15:20:41;29.00;;;8.52;;
19482;SDS011;9882;51.166;6.992;2023-10-08T15:23:10;21.92;;;7.40;;
19482;SDS011;9882;51.166;6.992;2023-10-08T15:25:39;24.65;;;7.95;;
19482;SDS011;9882;51.166;6.992;2023-10-08T15:28:09;31.08;;;7.75;;
19482;SDS011;9882;51.166;6.992;2023-10-08T15:30:38;19.45;;;7.25;;
19482;SDS011;9882;51.166;6.992;2023-10-08T15:33:09;20.17;;;7.10;;
19482;SDS011;9882;51.166;6.992;2023-10-08T15:35:40;26.40;;;7.40;;
19482;SDS011;9882;51.166;6.992;2023-10-08T15:38:08;17.67;;;6.13;;